Time;durP1;ratioP1;P1;durP2;ratioP2;P2;SDS_P1;SDS_P2;PMS_P1;PMS_P2;Temp;Humidity;BMP_temperature;BMP_pressure;BME280_temperature;BME280_humidity;BME280_pressure;Samples;Min_cycle;Max_cycle;Signal;HPM_P1;HPM_P2
2022/03/29 00:00:38;;;;;;;24.08;18.77;;;9.00;99.90;;;;;;5167312;27;20069;-65
2022/03/29 00:03:05;;;;;;;24.08;17.52;;;9.00;99.90;;;;;;5166824;27;20071;-65
2022/03/29 00:05:31;;;;;;;24.85;17.77;;;9.10;99.90;;;;;;5167631;27;20043;-65
2022/03/29 00:07:56;;;;;;;23.60;17.83;;;9.10;99.90;;;;;;5166377;27;20046;-65
2022/03/29 00:10:23;;;;;;;23.77;17.02;;;9.10;99.90;;;;;;5166787;27;20074;-65
2022/03/29 00:12:53;;;;;;;25.25;17.73;;;9.10;99.90;;;;;;5166687;27;20039;-65
2022/03/29 00:15:19;;;;;;;25.23;19.23;;;9.20;99.90;;;;;;5160885;27;20077;-65
2022/03/29 00:17:45;;;;;;;23.63;17.48;;;9.20;99.90;;;;;;5144409;27;20069;-65
2022/03/29 00:20:11;;;;;;;24.80;18.05;;;9.20;99.90;;;;;;5167042;27;20043;-65
2022/03/29 00:22:37;;;;;;;25.23;18.17;;;9.30;99.90;;;;;;5167158;27;20055;-65
2022/03/29 00:25:04;;;;;;;27.00;19.05;;;9.20;99.90;;;;;;5166769;27;20063;-65
2022/03/29 00:27:29;;;;;;;26.10;17.92;;;9.10;99.90;;;;;;5147451;27;20053;-65
2022/03/29 00:29:55;;;;;;;29.02;18.98;;;9.00;99.90;;;;;;5166562;27;20070;-65
2022/03/29 00:32:21;;;;;;;29.58;19.73;;;9.00;99.90;;;;;;5148043;27;20055;-65
2022/03/29 00:34:47;;;;;;;30.05;20.00;;;9.00;99.90;;;;;;5158346;27;20039;-65
2022/03/29 00:37:12;;;;;;;32.78;19.98;;;9.10;99.90;;;;;;5165619;27;20110;-65
2022/03/29 00:39:38;;;;;;;28.83;19.00;;;9.00;99.90;;;;;;5147061;27;20051;-65
2022/03/29 00:42:04;;;;;;;26.45;19.15;;;9.00;99.90;;;;;;5146755;27;20038;-65
2022/03/29 00:44:31;;;;;;;31.95;20.23;;;9.00;99.90;;;;;;5163449;27;20046;-65
2022/03/29 00:46:58;;;;;;;27.85;20.10;;;9.00;99.90;;;;;;5148235;27;20095;-65
2022/03/29 00:49:27;;;;;;;33.25;21.25;;;9.00;99.90;;;;;;5167031;27;20042;-65
2022/03/29 00:51:58;;;;;;;32.25;19.48;;;9.00;99.90;;;;;;5165779;27;20037;-65
2022/03/29 00:54:29;;;;;;;30.70;20.83;;;9.10;99.90;;;;;;5164310;27;20046;-65
2022/03/29 00:56:57;;;;;;;30.02;19.92;;;9.10;99.90;;;;;;5146230;27;20069;-65
2022/03/29 00:59:24;;;;;;;33.35;20.30;;;9.00;99.90;;;;;;5147089;27;20047;-65
2022/03/29 01:01:50;;;;;;;28.40;20.02;;;9.00;99.90;;;;;;5165309;27;20058;-65
2022/03/29 01:04:15;;;;;;;26.67;19.13;;;9.00;99.90;;;;;;5147533;27;20107;-65
2022/03/29 01:06:43;;;;;;;30.58;20.80;;;9.00;99.90;;;;;;5166433;27;20035;-65
2022/03/29 01:09:10;;;;;;;31.15;20.90;;;8.90;99.90;;;;;;5164613;27;20119;-65
2022/03/29 01:11:37;;;;;;;30.75;20.20;;;8.80;99.90;;;;;;5147136;27;20090;-65
2022/03/29 01:14:03;;;;;;;25.38;18.40;;;8.60;99.90;;;;;;5147482;27;20050;-65
2022/03/29 01:19:18;;;;;;;31.00;19.48;;;8.50;99.90;;;;;;5166015;27;20046;-65
2022/03/29 01:21:57;;;;;;;28.25;18.52;;;8.50;99.90;;;;;;5145875;27;20042;-65
2022/03/29 01:24:25;;;;;;;28.55;19.20;;;8.50;99.90;;;;;;5165728;27;20065;-65
2022/03/29 01:26:52;;;;;;;26.65;19.42;;;8.60;99.90;;;;;;5142888;27;20110;-65
2022/03/29 01:29:21;;;;;;;30.10;19.08;;;8.50;99.90;;;;;;5146212;27;20564;-65
2022/03/29 01:31:49;;;;;;;29.70;19.17;;;8.60;99.90;;;;;;5147647;27;20038;-65
2022/03/29 01:34:17;;;;;;;28.83;18.58;;;8.50;99.90;;;;;;5142453;27;20039;-65
2022/03/29 01:36:42;;;;;;;27.38;17.92;;;8.30;99.90;;;;;;5168702;27;20047;-65
2022/03/29 01:39:08;;;;;;;28.27;19.13;;;8.30;99.90;;;;;;5150097;27;20061;-65
2022/03/29 01:41:34;;;;;;;29.05;18.42;;;8.20;99.90;;;;;;5169201;27;20114;-65
2022/03/29 01:44:00;;;;;;;26.00;18.10;;;8.30;99.90;;;;;;5150029;27;20098;-65
2022/03/29 01:46:26;;;;;;;27.40;18.52;;;8.20;99.90;;;;;;5168262;27;20039;-65
2022/03/29 01:48:52;;;;;;;28.92;17.15;;;8.30;99.90;;;;;;5168280;27;20066;-65
2022/03/29 01:51:18;;;;;;;27.33;17.92;;;8.30;99.90;;;;;;5150147;27;20047;-65
2022/03/29 01:53:46;;;;;;;30.17;18.92;;;8.40;99.90;;;;;;5151111;27;20064;-65
2022/03/29 01:56:11;;;;;;;29.00;18.67;;;8.40;99.90;;;;;;5169451;27;20099;-65
2022/03/29 01:58:37;;;;;;;28.38;18.48;;;8.30;99.90;;;;;;5169082;27;20047;-65
2022/03/29 02:01:03;;;;;;;30.58;19.73;;;8.20;99.90;;;;;;5151212;27;20091;-65
2022/03/29 02:03:29;;;;;;;30.60;18.85;;;8.20;99.90;;;;;;5169610;27;20053;-65
2022/03/29 02:05:54;;;;;;;31.98;18.58;;;8.20;99.90;;;;;;5151294;27;20056;-65
2022/03/29 02:08:20;;;;;;;31.55;18.58;;;8.20;99.90;;;;;;5148372;27;20062;-65
2022/03/29 02:10:46;;;;;;;30.20;18.92;;;8.20;99.90;;;;;;5131911;27;20085;-65
2022/03/29 02:13:12;;;;;;;30.60;20.15;;;8.10;99.90;;;;;;5167311;27;20076;-65
2022/03/29 02:15:39;;;;;;;31.98;18.73;;;8.10;99.90;;;;;;5168090;27;20034;-65
2022/03/29 02:18:05;;;;;;;30.33;19.45;;;8.10;99.90;;;;;;5149734;27;20057;-65
2022/03/29 02:20:32;;;;;;;27.50;19.13;;;8.00;99.90;;;;;;5150617;27;20042;-65
2022/03/29 02:23:06;;;;;;;29.25;18.40;;;8.00;99.90;;;;;;5149770;27;20053;-65
2022/03/29 02:25:33;;;;;;;32.25;18.63;;;8.00;99.90;;;;;;5144692;27;20078;-65
2022/03/29 02:27:59;;;;;;;31.55;19.63;;;7.90;99.90;;;;;;5169665;27;20046;-65
2022/03/29 02:30:24;;;;;;;29.33;19.98;;;7.90;99.90;;;;;;5151270;27;20039;-65
2022/03/29 02:32:50;;;;;;;30.58;19.42;;;8.00;99.90;;;;;;5150557;27;20057;-65
2022/03/29 02:35:16;;;;;;;26.75;17.90;;;8.10;99.90;;;;;;5162903;27;20055;-65
2022/03/29 02:37:42;;;;;;;31.13;19.05;;;8.20;99.90;;;;;;5167145;27;20051;-65
2022/03/29 02:40:09;;;;;;;29.05;19.17;;;8.20;99.90;;;;;;5168394;27;20031;-65
2022/03/29 02:42:46;;;;;;;30.02;18.25;;;8.20;99.90;;;;;;5168975;27;20108;-65
2022/03/29 02:45:16;;;;;;;34.47;20.08;;;8.30;99.90;;;;;;5148953;27;20088;-65
2022/03/29 02:47:48;;;;;;;33.22;20.25;;;8.30;99.90;;;;;;5168259;27;20090;-65
2022/03/29 02:50:14;;;;;;;36.88;20.80;;;8.30;99.90;;;;;;5149554;27;20134;-65
2022/03/29 02:52:44;;;;;;;28.58;19.00;;;8.30;99.90;;;;;;5149400;27;20054;-65
2022/03/29 02:55:11;;;;;;;;;;;8.30;99.90;;;;;;5168683;27;20110;-65
2022/03/29 02:57:36;;;;;;;29.35;18.92;;;8.20;99.90;;;;;;5148619;27;19927;-65
2022/03/29 03:00:05;;;;;;;28.08;19.23;;;8.30;99.90;;;;;;5167229;27;20117;-65
2022/03/29 03:02:32;;;;;;;28.23;18.63;;;8.30;99.90;;;;;;5148931;27;20043;-65
2022/03/29 03:05:01;;;;;;;28.13;18.95;;;8.30;99.90;;;;;;5149044;27;20046;-65
2022/03/29 03:07:28;;;;;;;30.35;19.48;;;8.30;99.90;;;;;;5148486;27;20090;-65
2022/03/29 03:09:54;;;;;;;29.67;20.00;;;8.20;99.90;;;;;;5167377;27;20040;-65
2022/03/29 03:12:20;;;;;;;30.30;18.50;;;8.20;99.90;;;;;;5149412;27;20070;-65
2022/03/29 03:14:46;;;;;;;35.30;19.83;;;8.20;99.90;;;;;;5150093;27;20043;-65
2022/03/29 03:17:12;;;;;;;31.52;19.80;;;8.20;99.90;;;;;;5168534;27;20053;-65
2022/03/29 03:19:38;;;;;;;32.17;19.55;;;8.30;99.90;;;;;;5147211;27;20043;-65
2022/03/29 03:22:04;;;;;;;29.42;19.70;;;8.30;99.90;;;;;;5168076;27;20084;-65
2022/03/29 03:24:29;;;;;;;33.45;21.83;;;8.30;99.90;;;;;;5168116;27;20061;-65
2022/03/29 03:26:55;;;;;;;30.95;20.08;;;8.20;99.90;;;;;;5147554;27;20122;-65
2022/03/29 03:29:21;;;;;;;32.03;21.15;;;8.30;99.90;;;;;;5167512;27;20027;-65
2022/03/29 03:31:47;;;;;;;30.60;19.88;;;8.30;99.90;;;;;;5168011;27;20042;-65
2022/03/29 03:34:12;;;;;;;32.22;20.75;;;8.20;99.90;;;;;;5148344;27;20066;-65
2022/03/29 03:36:38;;;;;;;32.13;20.35;;;8.10;99.90;;;;;;5149026;27;20091;-65
2022/03/29 03:39:04;;;;;;;32.95;20.80;;;8.10;99.90;;;;;;5148667;27;20102;-65
2022/03/29 03:41:29;;;;;;;32.03;21.55;;;8.00;99.90;;;;;;5166894;27;20038;-65
2022/03/29 03:43:55;;;;;;;32.22;20.38;;;7.80;99.90;;;;;;5142885;27;20516;-65
2022/03/29 03:46:21;;;;;;;33.25;20.83;;;7.60;99.90;;;;;;5167408;27;20034;-65
2022/03/29 03:48:47;;;;;;;36.70;22.10;;;7.50;99.90;;;;;;5149059;27;20403;-65
2022/03/29 03:51:12;;;;;;;34.40;21.08;;;7.40;99.90;;;;;;5166566;27;20090;-65
2022/03/29 03:53:38;;;;;;;37.55;21.98;;;7.30;99.90;;;;;;5147710;27;20095;-65
2022/03/29 03:56:04;;;;;;;34.53;21.40;;;7.30;99.90;;;;;;5148684;27;20043;-65
2022/03/29 03:58:30;;;;;;;32.95;20.98;;;7.40;99.90;;;;;;5166418;27;20088;-65
2022/03/29 04:00:55;;;;;;;33.72;22.60;;;7.30;99.90;;;;;;5166955;27;20042;-65
2022/03/29 04:03:21;;;;;;;34.58;21.50;;;7.30;99.90;;;;;;5148384;27;20039;-65
2022/03/29 04:05:47;;;;;;;33.53;21.27;;;7.30;99.90;;;;;;5167029;27;20083;-65
2022/03/29 04:08:13;;;;;;;39.15;20.85;;;7.30;99.90;;;;;;5148411;27;20151;-65
2022/03/29 04:10:40;;;;;;;36.60;22.65;;;7.40;99.90;;;;;;5167049;27;20045;-65
2022/03/29 04:13:06;;;;;;;35.80;22.70;;;7.40;99.90;;;;;;5166112;27;20113;-65
2022/03/29 04:15:32;;;;;;;37.60;23.50;;;7.50;99.90;;;;;;5165649;27;20039;-65
2022/03/29 04:18:00;;;;;;;37.30;22.20;;;7.50;99.90;;;;;;5145794;27;20046;-65
2022/03/29 04:20:26;;;;;;;36.53;22.38;;;7.60;99.90;;;;;;5148171;27;20098;-65
2022/03/29 04:22:51;;;;;;;40.28;23.48;;;7.60;99.90;;;;;;5163742;27;20034;-65
2022/03/29 04:25:17;;;;;;;42.35;23.58;;;7.70;99.90;;;;;;5131338;27;20046;-65
2022/03/29 04:27:43;;;;;;;39.10;23.25;;;7.70;99.90;;;;;;5148742;27;20038;-65
2022/03/29 04:30:10;;;;;;;38.22;25.27;;;7.80;99.90;;;;;;5147719;27;20047;-65
2022/03/29 04:32:37;;;;;;;38.78;24.05;;;7.80;99.90;;;;;;5147672;27;20102;-65
2022/03/29 04:35:03;;;;;;;41.05;24.38;;;7.80;99.90;;;;;;5147371;27;20050;-65
2022/03/29 04:37:28;;;;;;;43.25;25.58;;;8.00;99.90;;;;;;5148501;27;20054;-65
2022/03/29 04:39:54;;;;;;;42.10;24.60;;;8.00;99.90;;;;;;5166688;27;20042;-65
2022/03/29 04:42:20;;;;;;;37.58;23.45;;;8.00;99.90;;;;;;5147940;27;20034;-65
2022/03/29 04:44:46;;;;;;;40.95;24.15;;;8.00;99.90;;;;;;5155482;27;20137;-65
2022/03/29 04:47:12;;;;;;;41.97;25.17;;;8.10;99.90;;;;;;5148103;27;20050;-65
2022/03/29 04:49:37;;;;;;;37.25;23.65;;;8.10;99.90;;;;;;5167201;27;20514;-65
2022/03/29 04:52:05;;;;;;;40.90;24.65;;;8.10;99.90;;;;;;5159653;27;20045;-65
2022/03/29 04:54:31;;;;;;;47.60;26.13;;;8.20;99.90;;;;;;5166129;27;20047;-65
2022/03/29 04:57:00;;;;;;;42.97;26.20;;;8.10;99.90;;;;;;5166369;27;20122;-65
2022/03/29 04:59:26;;;;;;;39.55;25.92;;;8.00;99.90;;;;;;5147572;27;20046;-65
2022/03/29 05:01:51;;;;;;;39.22;23.67;;;8.00;99.90;;;;;;5147418;27;20042;-65
2022/03/29 05:04:17;;;;;;;47.78;25.48;;;8.10;99.90;;;;;;5166320;27;20047;-65
2022/03/29 05:06:43;;;;;;;42.35;25.48;;;8.20;99.90;;;;;;5147815;27;20175;-65
2022/03/29 05:09:09;;;;;;;38.28;24.60;;;8.10;99.90;;;;;;5166424;27;20117;-65
2022/03/29 05:11:35;;;;;;;39.08;24.40;;;8.10;99.90;;;;;;5151719;27;20039;-65
2022/03/29 05:14:01;;;;;;;39.53;23.65;;;8.10;99.90;;;;;;5145474;27;20102;-65
2022/03/29 05:16:27;;;;;;;44.83;24.50;;;8.00;99.90;;;;;;5103474;27;20054;-65
2022/03/29 05:18:53;;;;;;;45.92;24.38;;;8.10;99.90;;;;;;5149475;27;20088;-65
2022/03/29 05:21:18;;;;;;;39.80;25.02;;;8.10;99.90;;;;;;5149764;27;20039;-65
2022/03/29 05:23:44;;;;;;;41.92;24.30;;;8.10;99.90;;;;;;5166411;27;21233;-66
2022/03/29 05:26:10;;;;;;;41.35;23.90;;;8.10;99.90;;;;;;5165887;27;20043;-66
2022/03/29 05:28:36;;;;;;;43.85;25.08;;;8.20;99.90;;;;;;5148284;27;20049;-65
2022/03/29 05:31:02;;;;;;;40.90;24.15;;;8.10;99.90;;;;;;5167006;27;20109;-65
2022/03/29 05:33:27;;;;;;;44.92;25.00;;;8.10;99.90;;;;;;5167365;27;20076;-69
2022/03/29 05:35:53;;;;;;;41.53;24.27;;;8.10;99.90;;;;;;5166557;27;20046;-65
2022/03/29 05:38:19;;;;;;;40.38;23.77;;;8.10;99.90;;;;;;5165769;27;20074;-65
2022/03/29 05:40:45;;;;;;;45.38;25.73;;;8.10;99.90;;;;;;5165475;27;20039;-64
2022/03/29 05:43:11;;;;;;;44.10;23.40;;;8.20;99.90;;;;;;5148130;27;20506;-64
2022/03/29 05:45:38;;;;;;;42.85;24.13;;;8.20;99.90;;;;;;5165682;27;20038;-65
2022/03/29 05:50:49;;;;;;;38.60;23.70;;;8.30;99.90;;;;;;5166266;27;20045;-65
2022/03/29 05:53:15;;;;;;;41.47;24.42;;;8.20;99.90;;;;;;5167981;27;20042;-65
2022/03/29 05:55:40;;;;;;;39.88;23.67;;;8.20;99.90;;;;;;5169694;27;20038;-66
2022/03/29 05:58:06;;;;;;;42.97;24.23;;;8.10;99.90;;;;;;5165031;27;20055;-66
2022/03/29 06:00:32;;;;;;;37.95;24.75;;;8.10;99.90;;;;;;5148160;27;20075;-66
2022/03/29 06:02:58;;;;;;;43.97;26.20;;;8.10;99.90;;;;;;5167004;27;20122;-65
2022/03/29 06:05:24;;;;;;;44.25;26.55;;;8.10;99.90;;;;;;5148605;27;20046;-64
2022/03/29 06:07:50;;;;;;;41.55;25.63;;;8.20;99.90;;;;;;5165689;27;20046;-69
2022/03/29 06:10:16;;;;;;;42.45;23.95;;;8.20;99.90;;;;;;5166891;27;20039;-64
2022/03/29 06:12:46;;;;;;;46.83;25.38;;;8.20;99.90;;;;;;5165565;27;20049;-64
2022/03/29 06:15:12;;;;;;;41.67;24.85;;;8.30;99.90;;;;;;5167619;27;20049;-64
2022/03/29 06:17:38;;;;;;;43.00;24.83;;;8.40;99.90;;;;;;5122345;27;20058;-64
2022/03/29 06:20:06;;;;;;;41.03;25.10;;;8.40;99.90;;;;;;5167969;27;20064;-64
2022/03/29 06:22:36;;;;;;;39.90;25.70;;;8.40;99.90;;;;;;5147735;27;20102;-64
2022/03/29 06:25:01;;;;;;;39.55;24.33;;;8.40;99.90;;;;;;5147661;27;20073;-64
2022/03/29 06:27:27;;;;;;;46.20;25.55;;;8.40;99.90;;;;;;5149060;27;20478;-64
2022/03/29 06:29:56;;;;;;;39.47;25.00;;;8.40;99.90;;;;;;5169411;27;20054;-64
2022/03/29 06:32:23;;;;;;;41.20;25.58;;;8.40;99.90;;;;;;5163271;27;20077;-64
2022/03/29 06:34:49;;;;;;;48.08;25.55;;;8.50;99.90;;;;;;5168746;27;20439;-65
2022/03/29 06:37:15;;;;;;;41.33;25.48;;;8.50;99.90;;;;;;5153202;27;20076;-64
2022/03/29 06:39:40;;;;;;;40.88;25.10;;;8.50;99.90;;;;;;5149376;27;20144;-65
2022/03/29 06:42:06;;;;;;;40.75;23.30;;;8.60;99.90;;;;;;5152026;27;20054;-71
2022/03/29 06:44:33;;;;;;;42.03;25.55;;;8.60;99.90;;;;;;5133907;27;20118;-71
2022/03/29 06:47:03;;;;;;;39.70;25.08;;;8.60;99.90;;;;;;5142365;27;20467;-71
2022/03/29 06:49:29;;;;;;;40.13;24.87;;;8.60;99.90;;;;;;5141656;27;20061;-71
2022/03/29 06:51:56;;;;;;;40.67;25.08;;;8.50;99.90;;;;;;5144278;27;20045;-70
2022/03/29 06:54:22;;;;;;;43.15;24.58;;;8.50;99.90;;;;;;5096856;27;20047;-71
2022/03/29 06:56:47;;;;;;;39.83;24.45;;;8.40;99.90;;;;;;5143809;27;20070;-71
2022/03/29 06:59:13;;;;;;;41.80;23.65;;;8.40;99.90;;;;;;5152162;27;20047;-72
2022/03/29 07:01:39;;;;;;;41.22;24.67;;;8.40;99.90;;;;;;5134738;27;20082;-72
2022/03/29 07:04:07;;;;;;;43.90;25.98;;;8.40;99.90;;;;;;5145726;27;20045;-72
2022/03/29 07:06:33;;;;;;;43.95;26.50;;;8.40;99.90;;;;;;5131080;27;20125;-72
2022/03/29 07:11:46;;;;;;;46.78;26.88;;;8.50;99.90;;;;;;5137524;27;20070;-72
2022/03/29 07:14:12;;;;;;;48.53;26.92;;;8.50;99.90;;;;;;5129467;27;20050;-72
2022/03/29 07:16:39;;;;;;;42.47;24.88;;;8.50;99.90;;;;;;5143019;27;20051;-71
2022/03/29 07:19:09;;;;;;;48.38;27.20;;;8.60;99.90;;;;;;5114314;27;20054;-72
2022/03/29 07:21:39;;;;;;;47.30;27.30;;;8.60;99.90;;;;;;5139947;27;20636;-72
2022/03/29 07:24:08;;;;;;;46.63;25.67;;;8.60;99.90;;;;;;5141886;27;20055;-71
2022/03/29 07:26:35;;;;;;;42.15;26.05;;;8.60;99.90;;;;;;5138814;27;20475;-71
2022/03/29 07:29:03;;;;;;;45.38;25.90;;;8.60;99.90;;;;;;5140689;27;20306;-72
2022/03/29 07:31:29;;;;;;;45.17;26.33;;;8.60;99.90;;;;;;5113372;27;20038;-72
2022/03/29 07:33:55;;;;;;;43.00;26.40;;;8.60;99.90;;;;;;5141097;27;20043;-72
2022/03/29 07:36:20;;;;;;;45.20;26.70;;;8.50;99.90;;;;;;5130790;27;20053;-71
2022/03/29 07:38:46;;;;;;;45.75;25.80;;;8.60;99.90;;;;;;5142270;27;20053;-68
2022/03/29 07:41:12;;;;;;;47.75;26.42;;;8.50;99.90;;;;;;5130707;27;20061;-69
2022/03/29 07:43:38;;;;;;;46.10;26.02;;;8.60;99.90;;;;;;5152326;27;20043;-69
2022/03/29 07:46:03;;;;;;;46.58;27.33;;;8.70;99.90;;;;;;5157338;27;20060;-69
2022/03/29 07:48:29;;;;;;;41.60;25.95;;;8.80;99.90;;;;;;5142428;27;20043;-69
2022/03/29 07:50:55;;;;;;;45.08;25.50;;;8.90;99.90;;;;;;5149226;27;20149;-69
2022/03/29 07:53:22;;;;;;;47.75;26.73;;;8.90;99.90;;;;;;5139369;27;20050;-69
2022/03/29 07:55:48;;;;;;;48.97;28.02;;;9.00;99.90;;;;;;5103409;27;20061;-69
2022/03/29 07:58:16;;;;;;;49.95;27.90;;;9.00;99.90;;;;;;5142849;27;20045;-69
2022/03/29 08:00:41;;;;;;;45.03;26.17;;;9.00;99.90;;;;;;5128649;27;20419;-70
2022/03/29 08:03:10;;;;;;;53.78;31.38;;;8.90;99.90;;;;;;5138699;27;20403;-70
2022/03/29 08:05:36;;;;;;;58.00;31.65;;;8.90;99.90;;;;;;5116464;27;20051;-68
2022/03/29 08:08:03;;;;;;;61.05;33.58;;;8.90;99.90;;;;;;5141141;27;20140;-70
2022/03/29 08:10:30;;;;;;;54.28;32.47;;;8.90;99.90;;;;;;5126564;27;20047;-71
2022/03/29 08:12:58;;;;;;;55.05;32.50;;;9.00;99.90;;;;;;5137729;27;20050;-72
2022/03/29 08:15:24;;;;;;;53.67;30.73;;;9.10;99.90;;;;;;5128492;27;20042;-71
2022/03/29 08:17:51;;;;;;;47.65;30.77;;;9.20;99.90;;;;;;5129729;27;20205;-71
2022/03/29 08:20:18;;;;;;;48.08;30.30;;;9.40;99.90;;;;;;5130379;27;20386;-72
2022/03/29 08:22:47;;;;;;;55.08;31.58;;;9.30;99.90;;;;;;5140287;27;20042;-72
2022/03/29 08:25:14;;;;;;;54.17;30.80;;;9.50;99.90;;;;;;5146671;27;20042;-72
2022/03/29 08:27:41;;;;;;;56.25;31.50;;;9.50;99.90;;;;;;5138446;27;20119;-72
2022/03/29 08:30:08;;;;;;;56.80;30.35;;;9.60;99.90;;;;;;5131387;27;20108;-72
2022/03/29 08:32:35;;;;;;;51.05;28.52;;;9.70;99.90;;;;;;5140542;27;20851;-72
2022/03/29 08:35:08;;;;;;;42.50;25.23;;;9.90;99.90;;;;;;5131209;27;20054;-72
2022/03/29 08:37:35;;;;;;;38.80;22.20;;;9.90;99.90;;;;;;5156683;27;20052;-73
2022/03/29 08:40:03;;;;;;;34.03;19.33;;;9.90;99.90;;;;;;5129624;27;20062;-73
2022/03/29 08:42:29;;;;;;;37.58;20.02;;;10.10;99.90;;;;;;5141519;27;20045;-73
2022/03/29 08:44:55;;;;;;;33.17;20.33;;;10.00;99.90;;;;;;5128634;27;20055;-73
2022/03/29 08:47:21;;;;;;;35.97;20.70;;;10.20;99.90;;;;;;5102712;27;20534;-73
2022/03/29 08:49:49;;;;;;;42.65;22.10;;;10.20;99.90;;;;;;5141621;27;20043;-72
2022/03/29 08:52:17;;;;;;;35.50;19.92;;;10.30;99.90;;;;;;5127093;27;20077;-72
2022/03/29 08:54:44;;;;;;;39.70;22.02;;;10.30;99.90;;;;;;5082910;27;20478;-72
2022/03/29 08:57:11;;;;;;;45.67;21.90;;;10.40;99.90;;;;;;5138804;27;20087;-72
2022/03/29 08:59:37;;;;;;;40.65;23.17;;;10.40;99.90;;;;;;5126947;27;20074;-71
2022/03/29 09:02:11;;;;;;;37.92;20.75;;;10.50;99.90;;;;;;5121815;27;20534;-70
2022/03/29 09:04:36;;;;;;;39.60;21.52;;;10.60;99.90;;;;;;5149010;27;20047;-71
2022/03/29 09:07:02;;;;;;;37.13;21.58;;;10.60;99.90;;;;;;5151220;27;20030;-72
2022/03/29 09:09:29;;;;;;;37.35;20.60;;;10.60;99.90;;;;;;5134393;27;20053;-71
2022/03/29 09:11:57;;;;;;;36.53;21.23;;;10.60;99.90;;;;;;5157277;27;20062;-70
2022/03/29 09:14:25;;;;;;;34.63;22.08;;;10.70;99.90;;;;;;5138122;27;20087;-69
2022/03/29 09:16:54;;;;;;;36.88;20.27;;;10.70;99.90;;;;;;5137205;27;20047;-70
2022/03/29 09:19:25;;;;;;;37.08;20.48;;;10.60;99.90;;;;;;5129693;27;20045;-71
2022/03/29 09:21:55;;;;;;;35.95;22.85;;;10.60;99.90;;;;;;5149518;27;20046;-71
2022/03/29 09:24:21;;;;;;;36.13;21.85;;;10.60;99.90;;;;;;5140103;27;20546;-71
2022/03/29 09:26:54;;;;;;;39.30;21.45;;;10.50;99.90;;;;;;5127801;27;20612;-71
2022/03/29 09:29:24;;;;;;;45.58;21.45;;;10.60;99.90;;;;;;5136830;28;20433;-70
2022/03/29 09:32:14;;;;;;;33.55;22.27;;;10.70;99.90;;;;;;5128280;27;20063;-70
2022/03/29 09:34:40;;;;;;;38.17;22.65;;;10.60;99.90;;;;;;5128139;27;20110;-70
2022/03/29 09:37:06;;;;;;;40.95;22.00;;;10.60;99.90;;;;;;5157459;27;20062;-70
2022/03/29 09:39:39;;;;;;;39.05;23.13;;;10.60;99.90;;;;;;5158343;27;20043;-70
2022/03/29 09:42:11;;;;;;;38.13;22.02;;;10.50;99.90;;;;;;5127947;27;20106;-71
2022/03/29 09:44:40;;;;;;;40.28;21.73;;;10.50;99.90;;;;;;5127294;27;20047;-70
2022/03/29 09:47:08;;;;;;;37.15;21.05;;;10.60;99.90;;;;;;5135494;27;20043;-70
2022/03/29 09:49:54;;;;;;;35.08;21.88;;;10.80;99.90;;;;;;5132081;27;20051;-70
2022/03/29 09:52:23;;;;;;;37.33;22.15;;;10.90;99.90;;;;;;5160895;27;20077;-71
2022/03/29 09:55:16;;;;;;;39.22;23.08;;;11.00;99.90;;;;;;5116210;27;20265;-70
2022/03/29 09:57:52;;;;;;;36.50;21.75;;;11.10;99.90;;;;;;5137292;27;20038;-71
2022/03/29 10:00:28;;;;;;;36.08;21.38;;;11.20;99.90;;;;;;5124814;27;20047;-69
2022/03/29 10:02:54;;;;;;;42.17;22.45;;;11.20;99.90;;;;;;5131057;27;20070;-69
2022/03/29 10:05:20;;;;;;;39.50;22.67;;;11.40;99.90;;;;;;5130844;27;20045;-72
2022/03/29 10:09:25;;;;;;;36.35;21.60;;;11.30;99.90;;;;;;5142478;27;20206;-72
2022/03/29 10:10:44;;;;;;;40.63;21.73;;;11.30;99.90;;;;;;5129391;27;20043;-75
2022/03/29 10:13:11;;;;;;;36.10;20.42;;;11.30;99.90;;;;;;5143969;27;20039;-71
2022/03/29 10:15:39;;;;;;;38.97;23.15;;;11.20;99.90;;;;;;5113623;27;20095;-70
2022/03/29 10:18:05;;;;;;;41.67;21.92;;;11.20;99.90;;;;;;5127312;27;20061;-71
2022/03/29 10:20:33;;;;;;;36.47;19.67;;;11.10;99.90;;;;;;5131128;27;20051;-71
2022/03/29 10:22:59;;;;;;;31.30;19.33;;;11.30;99.90;;;;;;5138275;27;20038;-71
2022/03/29 10:25:27;;;;;;;37.95;20.85;;;11.40;99.90;;;;;;5123942;27;20546;-72
2022/03/29 10:27:57;;;;;;;42.35;22.48;;;11.40;99.90;;;;;;5145860;27;20042;-73
2022/03/29 10:30:38;;;;;;;37.20;21.05;;;11.60;99.90;;;;;;5141621;27;20049;-73
2022/03/29 10:33:23;;;;;;;31.85;19.55;;;11.70;99.90;;;;;;5146948;27;20553;-73
2022/03/29 10:36:14;;;;;;;36.05;20.88;;;11.70;99.90;;;;;;5112685;27;20051;-73
2022/03/29 10:38:49;;;;;;;32.33;20.48;;;11.80;99.90;;;;;;5139325;27;20071;-73
2022/03/29 10:41:29;;;;;;;32.40;19.00;;;12.10;99.90;;;;;;5130304;27;20051;-73
2022/03/29 10:44:01;;;;;;;36.63;20.88;;;12.20;99.90;;;;;;5139991;27;20038;-73
2022/03/29 10:46:47;;;;;;;30.25;18.75;;;12.30;99.90;;;;;;5128397;27;20451;-73
2022/03/29 10:49:22;;;;;;;32.03;20.05;;;12.60;99.90;;;;;;5141230;27;20050;-74
2022/03/29 10:52:04;;;;;;;34.55;18.05;;;12.60;99.90;;;;;;5129106;27;20070;-74
2022/03/29 10:54:29;;;;;;;32.75;18.23;;;12.60;99.90;;;;;;5132808;27;20047;-74
2022/03/29 10:56:57;;;;;;;31.58;18.45;;;12.60;99.90;;;;;;5130558;27;20063;-73
2022/03/29 10:59:24;;;;;;;28.42;17.75;;;12.60;99.90;;;;;;5140851;27;20054;-73
2022/03/29 11:02:20;;;;;;;30.23;18.77;;;12.60;99.90;;;;;;5095277;27;20043;-74
2022/03/29 11:05:06;;;;;;;30.70;18.10;;;12.70;99.90;;;;;;5155235;27;20587;-74
2022/03/29 11:07:33;;;;;;;30.65;17.48;;;12.70;99.90;;;;;;5114416;27;20094;-74
2022/03/29 11:10:19;;;;;;;30.98;17.48;;;12.80;99.90;;;;;;5112607;27;20046;-73
2022/03/29 11:12:51;;;;;;;28.85;17.35;;;12.70;99.90;;;;;;5141378;27;20050;-74
2022/03/29 11:15:38;;;;;;;33.08;17.55;;;12.70;99.90;;;;;;5130152;27;20224;-74
2022/03/29 11:18:30;;;;;;;27.90;16.05;;;12.70;99.90;;;;;;5110450;27;20051;-74
2022/03/29 11:21:02;;;;;;;30.15;16.85;;;12.80;99.90;;;;;;5144890;27;20118;-73
2022/03/29 11:23:32;;;;;;;33.53;17.17;;;12.70;99.90;;;;;;5137983;27;20372;-74
2022/03/29 11:26:12;;;;;;;26.02;16.30;;;12.80;99.90;;;;;;5132091;27;20123;-74
2022/03/29 11:28:50;;;;;;;28.40;16.45;;;12.90;99.90;;;;;;5140175;27;20051;-71
2022/03/29 11:31:17;;;;;;;29.80;16.90;;;13.20;99.90;;;;;;5128191;27;20096;-73
2022/03/29 11:33:45;;;;;;;28.92;16.23;;;13.40;99.90;;;;;;5142515;27;20038;-73
2022/03/29 11:36:12;;;;;;;28.17;17.50;;;13.20;99.90;;;;;;5125163;27;20076;-72
2022/03/29 11:38:38;;;;;;;28.15;15.55;;;13.20;99.90;;;;;;5143043;27;20046;-74
2022/03/29 11:41:04;;;;;;;30.90;16.10;;;13.30;99.90;;;;;;5112437;27;20135;-73
2022/03/29 11:43:32;;;;;;;28.35;14.23;;;13.60;99.90;;;;;;5139116;27;20051;-73
2022/03/29 11:45:58;;;;;;;25.10;14.45;;;13.50;99.90;;;;;;5130665;27;20050;-73
2022/03/29 11:48:26;;;;;;;28.63;14.95;;;13.70;99.90;;;;;;5140627;27;20066;-73
2022/03/29 11:50:57;;;;;;;28.27;14.07;;;13.50;99.90;;;;;;5111169;27;20049;-73
2022/03/29 11:53:31;;;;;;;31.17;14.75;;;13.60;99.90;;;;;;5160141;27;20054;-73
2022/03/29 11:56:08;;;;;;;27.80;14.07;;;13.70;99.90;;;;;;5132135;27;20055;-73
2022/03/29 11:58:42;;;;;;;26.35;15.05;;;13.90;99.90;;;;;;5138926;27;20056;-74
2022/03/29 12:01:11;;;;;;;24.20;13.60;;;14.00;99.90;;;;;;5148513;27;20149;-74
2022/03/29 12:03:37;;;;;;;22.98;13.13;;;13.60;99.90;;;;;;5139849;27;20110;-73
2022/03/29 12:06:09;;;;;;;26.65;13.18;;;13.90;99.90;;;;;;5130864;27;20066;-73
2022/03/29 12:08:45;;;;;;;24.88;13.30;;;14.40;99.90;;;;;;5152036;27;20422;-73
2022/03/29 12:11:12;;;;;;;23.35;12.45;;;14.40;99.90;;;;;;5124051;27;20072;-74
2022/03/29 12:13:38;;;;;;;28.67;13.18;;;14.40;99.90;;;;;;5139883;27;20067;-74
2022/03/29 12:16:24;;;;;;;24.45;13.55;;;14.40;99.90;;;;;;5144779;27;20081;-73
2022/03/29 12:18:50;;;;;;;21.85;11.23;;;14.30;99.90;;;;;;5129933;27;20070;-73
2022/03/29 12:21:19;;;;;;;24.67;12.00;;;14.30;99.90;;;;;;5125375;27;20066;-73
2022/03/29 12:23:47;;;;;;;24.05;12.05;;;14.40;99.90;;;;;;5135311;27;20062;-73
2022/03/29 12:26:15;;;;;;;27.55;12.88;;;14.40;99.90;;;;;;5131527;27;20070;-73
2022/03/29 12:28:42;;;;;;;23.40;12.07;;;14.40;99.90;;;;;;5157676;27;20038;-73
2022/03/29 12:31:14;;;;;;;23.98;12.43;;;14.40;99.90;;;;;;5126689;27;20049;-73
2022/03/29 12:33:40;;;;;;;27.08;12.43;;;14.70;99.90;;;;;;5160979;27;20449;-73
2022/03/29 12:36:12;;;;;;;28.25;12.50;;;14.70;99.90;;;;;;5146431;27;20042;-73
2022/03/29 12:38:46;;;;;;;28.92;12.68;;;14.70;99.90;;;;;;5138688;27;20107;-72
2022/03/29 12:41:14;;;;;;;24.00;11.60;;;14.80;99.90;;;;;;5123295;27;20091;-73
2022/03/29 12:43:51;;;;;;;23.33;12.90;;;14.90;99.90;;;;;;5150566;27;20043;-72
2022/03/29 12:46:16;;;;;;;26.08;12.30;;;15.10;99.90;;;;;;5127066;27;20150;-73